Eden Prairie, MN

2:19 PM CDT on August 27, 2016 (GMT -0500)
Parkridge | | Change Station

Elev 932 ft 44.93 °N, 93.40 °W | Updated 1 second ago

Overcast
Overcast
66.9 °F
Feels Like 66.9 °F
N
0.0
Wind Variable Wind from North
Gusts 1.0 mph

Today
High -- | Low -- °F
--% Chance of Precip.
Yesterday
High -- | Low -- °F
Precip. -- in
Pressure 30.00 in
Visibility 10.0 miles
Clouds Overcast 1400 ft
Dew Point 63 °F
Humidity 86%
Rainfall 0.09 in
Snow Depth Not available.
6:30 AM 7:58 PM
Waning Crescent, 22% visible
METAR KFCM 271853Z 13008KT 10SM OVC014 19/16 A3000 RMK AO2 SLP157 T01940161
Pressure 30.00 in
Visibility 10.0 miles
Clouds Overcast 1400 ft
Dew Point 63 °F
Humidity 86%
Rainfall 0.09 in
Snow Depth Not available.
6:30 AM 7:58 PM
Waning Crescent, 22% visible
METAR KFCM 271853Z 13008KT 10SM OVC014 19/16 A3000 RMK AO2 SLP157 T01940161

10-Day Weather Forecast

Almanac

Astronomy

Aug. 27, 2016 Rise Set
Actual Time
Civil Twilight
Nautical Twilight
Astronomical Twilight
Moon
Length of Visible Light
Length of Day
Tomorrow will be .
, % of the Moon is Illuminated

Today's Extremes

State Highs State Lows

Community

WunderPhotos

Upload Photos

1,935,411 photos uploaded!

WunderBlog® & News

Nearby

Air Quality

  Air Quality AQ Index Pollutant
Not available.

Snow Depth

Station Depth Elevation

Earthquake Activity

City Distance Mag. Time & Date
Minimum magnitude displayed is 2.5.

Coastal Water Temperatures

Place Temperature

Stations

Nearby Weather Stations

Station Location Temp. Windchill Dew Point Humidity Wind Precip. Elev Updated Type
                   

Watches & Warnings

There are currently no watches in effect.